createdAt,value
2022-08-20T00:18:37.047Z,97243.16
2022-08-20T00:21:27.264Z,97257.86
2022-08-20T00:27:24.829Z,97237.76
2022-08-20T00:31:10.126Z,97237.81
2022-08-20T00:34:19.842Z,97235.02
2022-08-20T00:44:13.359Z,97233.61
2022-08-20T00:47:05.278Z,97236.23
2022-08-20T00:53:55.630Z,97237.88
2022-08-20T00:57:51.240Z,97244.26
2022-08-20T01:00:37.657Z,97239.40
2022-08-20T01:06:52.739Z,97239.69
2022-08-20T01:14:01.087Z,97242.77
2022-08-20T01:16:52.430Z,97245.76
2022-08-20T01:20:01.533Z,97242.73
2022-08-20T01:23:04.022Z,97241.42
2022-08-20T01:25:44.252Z,97240.96
2022-08-20T01:28:54.965Z,97246.52
2022-08-20T01:31:31.424Z,97242.07
2022-08-20T01:34:23.729Z,97242.11
2022-08-20T01:36:58.919Z,97232.23
2022-08-20T01:43:57.138Z,97228.84
2022-08-20T01:50:25.355Z,97233.53
2022-08-20T01:56:14.296Z,97225.58
2022-08-20T01:59:24.487Z,97219.05
2022-08-20T02:01:57.301Z,97220.09
2022-08-20T02:04:30.212Z,97222.98
2022-08-20T02:07:23.725Z,97221.64
2022-08-20T02:10:13.845Z,97210.30
2022-08-20T02:13:13.102Z,97212.50
2022-08-20T02:19:31.605Z,97210.16
2022-08-20T02:22:10.496Z,97208.68
2022-08-20T02:24:43.631Z,97204.19
2022-08-20T02:27:19.035Z,97208.80
2022-08-20T02:30:45.875Z,97212.77
2022-08-20T02:33:24.127Z,97216.91
2022-08-20T02:35:57.830Z,97215.48
2022-08-20T02:42:14.538Z,97219.02
2022-08-20T02:49:05.363Z,97218.20
2022-08-20T02:51:37.795Z,97219.34
2022-08-20T02:54:45.373Z,97223.97
2022-08-20T03:04:14.059Z,97236.27
2022-08-20T03:09:55.778Z,97230.38
2022-08-20T03:15:58.079Z,97223.27
2022-08-20T03:19:05.559Z,97221.63
2022-08-20T03:21:55.185Z,97222.65
2022-08-20T03:25:04.519Z,97226.20
2022-08-20T03:27:37.175Z,97225.56
2022-08-20T03:30:12.939Z,97228.14
2022-08-20T03:33:04.944Z,97227.65
2022-08-20T03:39:40.081Z,97231.74
2022-08-20T03:45:58.245Z,97237.05
2022-08-20T03:49:06.432Z,97240.48
2022-08-20T03:55:41.967Z,97236.10
2022-08-20T03:58:19.510Z,97238.64
2022-08-20T04:01:44.742Z,97241.63
2022-08-20T04:04:35.967Z,97243.33
2022-08-20T04:07:31.169Z,97246.12
2022-08-20T04:10:22.448Z,97243.36
2022-08-20T04:12:54.671Z,97238.12
2022-08-20T04:15:27.394Z,97238.20
2022-08-20T04:18:34.441Z,97238.62
2022-08-20T04:21:24.678Z,97237.58
2022-08-20T04:31:14.354Z,97242.69
2022-08-20T04:34:21.926Z,97247.73
2022-08-20T04:37:17.338Z,97258.13
2022-08-20T04:40:24.934Z,97257.91
2022-08-20T04:46:59.808Z,97255.27
2022-08-20T04:52:39.756Z,97250.23
2022-08-20T04:58:38.661Z,97269.27
2022-08-20T05:01:13.005Z,97271.84
2022-08-20T05:03:46.050Z,97274.73
2022-08-20T05:06:53.075Z,97277.70
2022-08-20T05:09:44.340Z,97279.77
2022-08-20T05:12:19.914Z,97282.68
2022-08-20T05:15:26.873Z,97282.39
2022-08-20T05:18:52.387Z,97278.85
2022-08-20T05:22:00.535Z,97283.01
2022-08-20T05:25:25.190Z,97281.24
2022-08-20T05:28:51.355Z,97280.46
2022-08-20T05:31:33.318Z,97284.17
2022-08-20T05:34:26.534Z,97288.26
2022-08-20T05:37:17.772Z,97277.98
2022-08-20T05:43:35.218Z,97284.61
2022-08-20T05:46:44.133Z,97284.18
2022-08-20T05:49:20.071Z,97283.52
2022-08-20T05:52:09.835Z,97275.70
2022-08-20T05:54:59.558Z,97270.84
2022-08-20T05:58:25.437Z,97284.23
2022-08-20T06:05:16.888Z,97288.50
2022-08-20T06:08:07.529Z,97288.35
2022-08-20T06:11:37.301Z,97286.79
2022-08-20T06:14:09.850Z,97272.48
2022-08-20T06:16:57.223Z,97285.33
2022-08-20T06:19:50.521Z,97285.61
2022-08-20T06:22:25.691Z,97282.19
2022-08-20T06:25:15.905Z,97288.55
2022-08-20T06:28:24.752Z,97280.77
2022-08-20T06:31:31.863Z,97290.28
2022-08-20T06:34:49.890Z,97286.30
2022-08-20T06:37:41.646Z,97282.92
2022-08-20T06:40:18.396Z,97284.94
2022-08-20T06:43:10.037Z,97284.02
2022-08-20T06:46:19.118Z,97278.44
2022-08-20T06:49:27.261Z,97280.84
2022-08-20T06:55:30.697Z,97277.02
2022-08-20T06:58:32.775Z,97269.70
2022-08-20T07:04:37.193Z,97266.52
2022-08-20T07:07:47.173Z,97260.38
2022-08-20T07:14:37.937Z,97254.85
2022-08-20T07:17:12.469Z,97261.92
2022-08-20T07:20:25.088Z,97265.94
2022-08-20T07:23:33.872Z,97255.98
2022-08-20T07:26:24.663Z,97246.49
2022-08-20T07:29:16.005Z,97247.32
2022-08-20T07:32:30.252Z,97246.20
2022-08-20T07:42:30.778Z,97236.23
2022-08-20T07:51:54.575Z,97239.05
2022-08-20T07:54:28.094Z,97240.39
2022-08-20T07:57:05.178Z,97245.70
2022-08-20T07:59:38.913Z,97249.26
2022-08-20T08:02:28.566Z,97234.31
2022-08-20T08:05:55.593Z,97235.75
2022-08-20T08:09:03.524Z,97242.73
2022-08-20T08:11:56.683Z,97249.66
2022-08-20T08:18:33.956Z,97248.92
2022-08-20T08:21:06.812Z,97253.05
2022-08-20T08:23:40.499Z,97253.13
2022-08-20T08:33:58.160Z,97247.39
2022-08-20T08:44:22.978Z,97254.23
2022-08-20T08:47:21.773Z,97251.94
2022-08-20T08:54:24.637Z,97257.84
2022-08-20T09:01:01.579Z,97254.36
2022-08-20T09:03:55.500Z,97258.81
2022-08-20T09:11:05.617Z,97256.46
2022-08-20T09:13:56.234Z,97254.56
2022-08-20T09:16:52.242Z,97251.69
2022-08-20T09:20:18.135Z,97253.69
2022-08-20T09:23:25.266Z,97254.11
2022-08-20T09:26:15.045Z,97254.77
2022-08-20T09:29:22.449Z,97253.79
2022-08-20T09:32:11.970Z,97252.74
2022-08-20T09:35:08.959Z,97251.58
2022-08-20T09:38:00.011Z,97249.77
2022-08-20T09:41:07.290Z,97250.06
2022-08-20T09:43:57.275Z,97252.48
2022-08-20T09:47:22.322Z,97249.91
2022-08-20T09:50:49.307Z,97245.87
2022-08-20T09:53:23.181Z,97250.27
2022-08-20T09:56:31.224Z,97247.52
2022-08-20T09:59:03.222Z,97252.45
2022-08-20T10:01:35.499Z,97249.48
2022-08-20T10:04:42.920Z,97245.48
2022-08-20T10:10:38.829Z,97234.70
2022-08-20T10:13:29.504Z,97237.73
2022-08-20T10:19:31.273Z,97239.67
2022-08-20T10:22:04.233Z,97246.05
2022-08-20T10:24:54.154Z,97242.28
2022-08-20T10:28:02.359Z,97245.80
2022-08-20T10:31:10.897Z,97241.85
2022-08-20T10:34:36.987Z,97234.33
2022-08-20T10:38:03.175Z,97230.27
2022-08-20T10:41:09.689Z,97233.23
2022-08-20T10:44:18.890Z,97233.73
2022-08-20T10:47:08.295Z,97228.23
2022-08-20T10:50:16.103Z,97225.27
2022-08-20T10:53:05.824Z,97220.71
2022-08-20T11:02:11.449Z,97212.33
2022-08-20T11:08:47.596Z,97211.21
2022-08-20T11:11:57.678Z,97210.20
2022-08-20T11:14:31.879Z,97207.05
2022-08-20T11:17:05.809Z,97200.85
2022-08-20T11:20:14.538Z,97198.45
2022-08-20T11:23:06.580Z,97202.02
2022-08-20T11:32:54.164Z,97204.64
2022-08-20T11:35:48.852Z,97205.73
2022-08-20T11:38:55.148Z,97198.61
2022-08-20T11:41:28.721Z,97197.73
2022-08-20T11:44:37.925Z,97195.86
2022-08-20T11:47:47.044Z,97196.36
2022-08-20T11:50:38.283Z,97194.33
2022-08-20T11:53:26.998Z,97193.16
2022-08-20T11:59:48.526Z,97190.86
2022-08-20T12:02:39.111Z,97191.88
2022-08-20T12:05:49.410Z,97182.96
2022-08-20T12:08:27.554Z,97183.31
2022-08-20T12:17:56.144Z,97176.35
2022-08-20T12:21:06.712Z,97179.92
2022-08-20T12:24:15.744Z,97176.92
2022-08-20T12:27:17.699Z,97174.92
2022-08-20T12:30:42.936Z,97170.92
2022-08-20T12:33:32.921Z,97165.73
2022-08-20T12:36:23.215Z,97166.81
2022-08-20T12:39:13.629Z,97166.20
2022-08-20T12:44:54.078Z,97162.85
2022-08-20T12:47:47.283Z,97160.42
2022-08-20T12:53:48.951Z,97162.24
2022-08-20T13:00:11.044Z,97155.90
2022-08-20T13:02:43.837Z,97153.83
2022-08-20T13:05:34.028Z,97152.33
2022-08-20T13:08:25.285Z,97140.33
2022-08-20T13:14:42.967Z,97145.16
2022-08-20T13:20:45.203Z,97144.70
2022-08-20T13:30:10.653Z,97139.14
2022-08-20T13:33:18.235Z,97133.45
2022-08-20T13:36:25.054Z,97134.98
2022-08-20T13:39:21.566Z,97133.27
2022-08-20T13:42:32.805Z,97129.95
2022-08-20T13:45:23.945Z,97132.66
2022-08-20T13:48:15.479Z,97128.92
2022-08-20T13:50:49.226Z,97133.81
2022-08-20T13:56:46.335Z,97117.66
2022-08-20T13:59:37.659Z,97113.66
2022-08-20T14:02:29.149Z,97102.23
2022-08-20T14:05:38.058Z,97097.54
2022-08-20T14:11:22.398Z,97089.25
2022-08-20T14:14:33.001Z,97087.83
2022-08-20T14:17:41.651Z,97091.33
2022-08-20T14:20:50.782Z,97086.02
2022-08-20T14:26:31.209Z,97086.52
2022-08-20T14:32:11.496Z,97088.55
2022-08-20T14:34:43.901Z,97083.49
2022-08-20T14:37:19.195Z,97084.09
2022-08-20T14:40:11.213Z,97082.76
2022-08-20T14:43:01.390Z,97080.79
2022-08-20T14:48:40.400Z,97075.69
2022-08-20T14:54:40.143Z,97067.66
2022-08-20T14:57:33.807Z,97062.68
2022-08-20T15:03:14.619Z,97051.15
2022-08-20T15:06:06.315Z,97049.68
2022-08-20T15:09:50.931Z,97049.67
2022-08-20T15:12:43.082Z,97052.09
2022-08-20T15:15:51.140Z,97049.14
2022-08-20T15:18:25.298Z,97050.04
2022-08-20T15:21:19.045Z,97046.09
2022-08-20T15:24:15.793Z,97043.01
2022-08-20T15:27:29.124Z,97041.05
2022-08-20T15:30:20.317Z,97041.41
2022-08-20T15:33:45.294Z,97041.84
2022-08-20T15:36:17.420Z,97039.67
2022-08-20T15:38:49.914Z,97043.69
2022-08-20T15:45:24.469Z,97043.60
2022-08-20T15:48:01.680Z,97038.87
2022-08-20T15:51:22.688Z,97043.69
2022-08-20T15:54:18.628Z,97039.01
2022-08-20T15:57:03.163Z,97039.88
2022-08-20T16:00:27.849Z,97042.08
2022-08-20T16:07:37.988Z,97042.36
2022-08-20T16:14:18.737Z,97041.08
2022-08-20T16:17:30.720Z,97041.50
2022-08-20T16:20:26.268Z,97043.52
2022-08-20T16:23:43.970Z,97047.23
2022-08-20T16:30:09.296Z,97045.31
2022-08-20T16:36:37.376Z,97043.88
2022-08-20T16:39:35.100Z,97042.11
2022-08-20T16:42:29.958Z,97045.84
2022-08-20T16:45:04.094Z,97046.30
2022-08-20T16:47:58.025Z,97046.16
2022-08-20T16:50:51.386Z,97044.96
2022-08-20T16:53:25.115Z,97045.94
2022-08-20T17:14:31.359Z,97047.59
2022-08-20T17:21:08.679Z,97050.39
2022-08-20T17:23:59.830Z,97049.16
2022-08-20T17:26:37.065Z,97052.52
2022-08-20T17:29:17.509Z,97052.80
2022-08-20T17:36:21.080Z,97052.40
2022-08-20T17:38:55.969Z,97055.17
2022-08-20T17:41:46.803Z,97061.55
2022-08-20T17:45:14.105Z,97062.44
2022-08-20T17:47:47.016Z,97064.91
2022-08-20T17:51:14.191Z,97069.23
2022-08-20T18:03:50.115Z,97079.83
2022-08-20T18:07:04.431Z,97082.80
2022-08-20T18:09:58.309Z,97085.78
2022-08-20T18:12:37.771Z,97088.77
2022-08-20T18:15:32.342Z,97084.32
2022-08-20T18:18:55.040Z,97081.22
2022-08-20T18:22:24.734Z,97086.95
2022-08-20T18:25:18.757Z,97089.09
2022-08-20T18:31:49.790Z,97090.48
2022-08-20T18:35:27.122Z,97089.46
2022-08-20T18:38:27.981Z,97089.41
2022-08-20T18:41:29.523Z,97090.52
2022-08-20T18:44:14.117Z,97087.30
2022-08-20T18:47:16.325Z,97090.23
2022-08-20T18:50:21.891Z,97101.77
2022-08-20T18:53:16.836Z,97106.63
2022-08-20T18:56:07.018Z,97111.83
2022-08-20T18:58:55.593Z,97119.22
2022-08-20T19:02:07.480Z,97125.94
2022-08-20T19:08:47.526Z,97130.35
2022-08-20T19:11:50.760Z,97134.55
2022-08-20T19:18:12.363Z,97141.78
2022-08-20T19:21:15.835Z,97138.63
2022-08-20T19:24:08.809Z,97142.00
2022-08-20T19:27:04.647Z,97149.12
2022-08-20T19:33:47.206Z,97148.16
2022-08-20T19:37:35.058Z,97142.66
2022-08-20T19:51:12.082Z,97155.16
2022-08-20T19:54:41.859Z,97154.95
2022-08-20T19:57:31.185Z,97163.20
2022-08-20T20:00:24.151Z,97159.91
2022-08-20T20:03:32.081Z,97163.27
2022-08-20T20:10:07.566Z,97169.13
2022-08-20T20:12:41.633Z,97173.42
2022-08-20T20:15:31.294Z,97172.52
2022-08-20T20:18:39.225Z,97174.52
2022-08-20T20:21:36.965Z,97173.34
2022-08-20T20:24:21.274Z,97171.13
2022-08-20T20:26:53.785Z,97161.96
2022-08-20T20:29:45.718Z,97160.23
2022-08-20T20:32:39.373Z,97161.20
2022-08-20T20:35:12.389Z,97163.73
2022-08-20T20:37:50.920Z,97164.58
2022-08-20T20:41:23.754Z,97165.33
2022-08-20T20:44:05.493Z,97168.45
2022-08-20T20:46:55.786Z,97172.48
2022-08-20T20:50:04.831Z,97170.77
2022-08-20T20:53:13.020Z,97167.87
2022-08-20T20:56:01.975Z,97166.75
2022-08-20T21:01:48.720Z,97176.80
2022-08-20T21:08:12.466Z,97177.83
2022-08-20T21:17:47.203Z,97182.40
2022-08-20T21:23:47.389Z,97189.55
2022-08-20T21:26:37.264Z,97191.67
2022-08-20T21:29:31.813Z,97190.45
2022-08-20T21:42:21.054Z,97190.50
2022-08-20T21:45:19.726Z,97191.64
2022-08-20T21:47:52.421Z,97190.30
2022-08-20T21:50:24.809Z,97190.90
2022-08-20T21:56:23.316Z,97193.08
2022-08-20T21:59:48.856Z,97187.56
2022-08-20T22:02:39.559Z,97184.05
2022-08-20T22:05:12.243Z,97185.71
2022-08-20T22:07:46.277Z,97187.62
2022-08-20T22:10:53.903Z,97186.60
2022-08-20T22:17:27.869Z,97190.29
2022-08-20T22:20:34.822Z,97193.23
2022-08-20T22:23:24.560Z,97190.94
2022-08-20T22:26:14.694Z,97191.97
2022-08-20T22:29:41.914Z,97192.91
2022-08-20T22:35:58.165Z,97187.70
2022-08-20T22:43:08.733Z,97189.11
2022-08-20T22:46:33.587Z,97195.42
2022-08-20T22:49:09.365Z,97196.14
2022-08-20T22:51:45.408Z,97197.98
2022-08-20T22:54:23.561Z,97193.84
2022-08-20T22:57:30.907Z,97196.30
2022-08-20T23:00:25.386Z,97197.05
2022-08-20T23:03:50.130Z,97199.21
2022-08-20T23:06:40.365Z,97199.14
2022-08-20T23:09:50.377Z,97199.67
2022-08-20T23:12:22.441Z,97199.24
2022-08-20T23:18:06.632Z,97195.88
2022-08-20T23:20:39.261Z,97197.27
2022-08-20T23:23:29.256Z,97196.83
2022-08-20T23:29:49.047Z,97200.55
2022-08-20T23:32:40.243Z,97196.33
2022-08-20T23:42:39.982Z,97190.31
2022-08-20T23:45:46.939Z,97186.11
2022-08-20T23:56:08.434Z,97177.06
2022-08-20T23:58:41.256Z,97183.14
